PILOTS ONLINE: 418    ATC ONLINE: 68

Location

IATA CDC
City Cedar City
Country  United States
Latitude 37° 42' 3" N
Longitude 113° 5' 56" W
Elevation 5622 ft
Type Medium Airport

Weather

METAR
2014/07/14 14:53
KCDC 141453Z AUTO 21008KT 10SM CLR 25/10 A3027 RMK AO2 SLP155 T02500100 51013
TAF
2014/07/14 12:24
TAF KCDC 141120Z 1412/1512 17006KT P6SM FEW090 SCT140 
     FM150300 VRB04KT P6SM SKC

Runways

02/20 8653 ft / 150 ft
08/26 4822 ft / 60 ft

Outbound flights

Inbound flights


Spotted incorrect airport information? Please login with your VATSIM ID.